sensor_id;sensor_type;location;lat;lon;timestamp;pressure;altitude;pressure_sealevel;temperature;humidity
5966;BME280;3009;43.224;27.976;2023-07-13T00:01:10;100598.09;;;23.06;100.00
5966;BME280;3009;43.224;27.976;2023-07-13T00:03:39;100600.03;;;23.01;100.00
5966;BME280;3009;43.224;27.976;2023-07-13T00:06:08;100589.50;;;23.04;100.00
5966;BME280;3009;43.224;27.976;2023-07-13T00:08:37;100600.47;;;23.11;100.00
5966;BME280;3009;43.224;27.976;2023-07-13T00:11:06;100593.41;;;23.06;100.00
5966;BME280;3009;43.224;27.976;2023-07-13T00:13:34;100593.03;;;23.04;100.00
5966;BME280;3009;43.224;27.976;2023-07-13T00:16:05;100594.59;;;22.98;100.00
5966;BME280;3009;43.224;27.976;2023-07-13T00:18:35;100596.13;;;22.99;100.00
5966;BME280;3009;43.224;27.976;2023-07-13T00:21:04;100594.97;;;22.96;100.00
5966;BME280;3009;43.224;27.976;2023-07-13T00:23:33;100586.38;;;22.98;100.00
5966;BME280;3009;43.224;27.976;2023-07-13T00:26:03;100584.03;;;22.96;100.00
5966;BME280;3009;43.224;27.976;2023-07-13T00:28:32;100584.81;;;22.97;100.00
5966;BME280;3009;43.224;27.976;2023-07-13T00:31:01;100576.22;;;22.98;100.00
5966;BME280;3009;43.224;27.976;2023-07-13T00:33:32;100576.22;;;22.98;100.00
5966;BME280;3009;43.224;27.976;2023-07-13T00:36:03;100568.41;;;22.93;100.00
5966;BME280;3009;43.224;27.976;2023-07-13T00:38:31;100572.28;;;22.96;100.00
5966;BME280;3009;43.224;27.976;2023-07-13T00:41:00;100557.84;;;22.88;100.00
5966;BME280;3009;43.224;27.976;2023-07-13T00:43:30;100559.81;;;22.95;100.00
5966;BME280;3009;43.224;27.976;2023-07-13T00:46:21;100569.19;;;23.01;100.00
5966;BME280;3009;43.224;27.976;2023-07-13T00:48:50;100563.72;;;23.01;100.00
5966;BME280;3009;43.224;27.976;2023-07-13T00:51:26;100552.00;;;22.97;100.00
5966;BME280;3009;43.224;27.976;2023-07-13T00:53:58;100550.84;;;22.98;100.00
5966;BME280;3009;43.224;27.976;2023-07-13T00:56:28;100549.66;;;23.06;100.00
5966;BME280;3009;43.224;27.976;2023-07-13T00:58:57;100543.78;;;23.00;100.00
5966;BME280;3009;43.224;27.976;2023-07-13T01:01:27;100547.31;;;23.01;100.00
5966;BME280;3009;43.224;27.976;2023-07-13T01:03:56;100547.28;;;22.97;100.00
5966;BME280;3009;43.224;27.976;2023-07-13T01:06:26;100545.75;;;23.04;100.00
5966;BME280;3009;43.224;27.976;2023-07-13T01:08:55;100540.28;;;23.04;100.00
5966;BME280;3009;43.224;27.976;2023-07-13T01:11:25;100538.34;;;23.04;100.00
5966;BME280;3009;43.224;27.976;2023-07-13T01:13:54;100541.84;;;23.01;100.00
5966;BME280;3009;43.224;27.976;2023-07-13T01:16:26;100532.06;;;22.93;100.00
5966;BME280;3009;43.224;27.976;2023-07-13T01:18:58;100532.06;;;22.89;100.00
5966;BME280;3009;43.224;27.976;2023-07-13T01:21:31;100525.41;;;22.87;100.00
5966;BME280;3009;43.224;27.976;2023-07-13T01:24:00;100523.84;;;22.86;100.00
5966;BME280;3009;43.224;27.976;2023-07-13T01:26:29;100526.19;;;22.87;100.00
5966;BME280;3009;43.224;27.976;2023-07-13T01:28:57;100527.75;;;22.88;100.00
5966;BME280;3009;43.224;27.976;2023-07-13T01:31:26;100530.09;;;22.90;100.00
5966;BME280;3009;43.224;27.976;2023-07-13T01:33:55;100523.84;;;22.93;100.00
5966;BME280;3009;43.224;27.976;2023-07-13T01:36:24;100523.84;;;22.86;100.00
5966;BME280;3009;43.224;27.976;2023-07-13T01:38:54;100521.53;;;22.88;100.00
5966;BME280;3009;43.224;27.976;2023-07-13T01:41:22;100510.97;;;23.00;100.00
5966;BME280;3009;43.224;27.976;2023-07-13T01:43:51;100514.88;;;22.96;100.00
5966;BME280;3009;43.224;27.976;2023-07-13T01:46:19;100509.03;;;22.94;100.00
5966;BME280;3009;43.224;27.976;2023-07-13T01:48:50;100505.13;;;22.91;100.00
5966;BME280;3009;43.224;27.976;2023-07-13T01:51:20;100507.44;;;22.93;100.00
5966;BME280;3009;43.224;27.976;2023-07-13T01:53:49;100503.94;;;22.96;100.00
5966;BME280;3009;43.224;27.976;2023-07-13T01:56:19;100498.88;;;22.98;100.00
5966;BME280;3009;43.224;27.976;2023-07-13T01:58:48;100502.00;;;22.96;100.00
5966;BME280;3009;43.224;27.976;2023-07-13T02:01:16;100499.66;;;22.98;100.00
5966;BME280;3009;43.224;27.976;2023-07-13T02:03:44;100503.56;;;22.97;100.00
5966;BME280;3009;43.224;27.976;2023-07-13T02:06:13;100496.13;;;22.91;100.00
5966;BME280;3009;43.224;27.976;2023-07-13T02:08:42;100506.28;;;22.90;100.00
5966;BME280;3009;43.224;27.976;2023-07-13T02:11:10;100503.94;;;22.96;100.00
5966;BME280;3009;43.224;27.976;2023-07-13T02:13:40;100507.84;;;22.91;100.00
5966;BME280;3009;43.224;27.976;2023-07-13T02:16:09;100507.06;;;22.91;100.00
5966;BME280;3009;43.224;27.976;2023-07-13T02:18:38;100513.69;;;22.82;100.00
5966;BME280;3009;43.224;27.976;2023-07-13T02:21:06;100509.78;;;22.83;100.00
5966;BME280;3009;43.224;27.976;2023-07-13T02:23:35;100506.28;;;22.72;100.00
5966;BME280;3009;43.224;27.976;2023-07-13T02:26:03;100512.09;;;22.63;100.00
5966;BME280;3009;43.224;27.976;2023-07-13T02:28:32;100511.34;;;22.67;100.00
5966;BME280;3009;43.224;27.976;2023-07-13T02:31:07;100506.22;;;22.58;100.00
5966;BME280;3009;43.224;27.976;2023-07-13T02:33:36;100507.78;;;22.52;100.00
5966;BME280;3009;43.224;27.976;2023-07-13T02:36:05;100502.69;;;22.54;100.00
5966;BME280;3009;43.224;27.976;2023-07-13T02:38:34;100507.00;;;22.55;100.00
5966;BME280;3009;43.224;27.976;2023-07-13T02:41:03;100506.63;;;22.53;100.00
5966;BME280;3009;43.224;27.976;2023-07-13T02:43:32;100505.78;;;22.41;100.00
5966;BME280;3009;43.224;27.976;2023-07-13T02:46:01;100510.84;;;22.36;100.00
5966;BME280;3009;43.224;27.976;2023-07-13T02:48:37;100509.75;;;22.55;100.00
5966;BME280;3009;43.224;27.976;2023-07-13T02:51:06;100514.41;;;22.51;100.00
5966;BME280;3009;43.224;27.976;2023-07-13T02:53:35;100507.78;;;22.52;100.00
5966;BME280;3009;43.224;27.976;2023-07-13T02:56:04;100513.63;;;22.46;100.00
5966;BME280;3009;43.224;27.976;2023-07-13T02:58:33;100512.84;;;22.46;100.00
5966;BME280;3009;43.224;27.976;2023-07-13T03:01:06;100513.25;;;22.55;100.00
5966;BME280;3009;43.224;27.976;2023-07-13T03:03:37;100511.31;;;22.70;100.00
5966;BME280;3009;43.224;27.976;2023-07-13T03:06:06;100505.91;;;22.85;100.00
5966;BME280;3009;43.224;27.976;2023-07-13T03:08:37;100492.63;;;22.97;100.00
5966;BME280;3009;43.224;27.976;2023-07-13T03:11:07;100493.78;;;23.00;100.00
5966;BME280;3009;43.224;27.976;2023-07-13T03:13:36;100478.56;;;22.99;100.00
5966;BME280;3009;43.224;27.976;2023-07-13T03:16:05;100480.09;;;22.86;100.00
5966;BME280;3009;43.224;27.976;2023-07-13T03:18:35;100484.06;;;23.17;100.00
5966;BME280;3009;43.224;27.976;2023-07-13T03:21:05;100476.19;;;23.66;100.00
5966;BME280;3009;43.224;27.976;2023-07-13T03:23:34;100454.13;;;24.09;100.00
5966;BME280;3009;43.224;27.976;2023-07-13T03:26:04;100443.41;;;24.36;100.00
5966;BME280;3009;43.224;27.976;2023-07-13T03:28:33;100433.25;;;24.89;100.00
5966;BME280;3009;43.224;27.976;2023-07-13T03:31:02;100437.25;;;24.81;100.00
5966;BME280;3009;43.224;27.976;2023-07-13T03:33:31;100439.09;;;24.99;100.00
5966;BME280;3009;43.224;27.976;2023-07-13T03:36:00;100431.94;;;25.08;100.00
5966;BME280;3009;43.224;27.976;2023-07-13T03:38:30;100427.69;;;25.00;100.00
5966;BME280;3009;43.224;27.976;2023-07-13T03:40:59;100432.34;;;25.07;100.00
5966;BME280;3009;43.224;27.976;2023-07-13T03:43:27;100426.09;;;25.79;100.00
5966;BME280;3009;43.224;27.976;2023-07-13T03:45:56;100411.66;;;26.60;100.00
5966;BME280;3009;43.224;27.976;2023-07-13T03:48:25;100405.84;;;26.78;100.00
5966;BME280;3009;43.224;27.976;2023-07-13T03:50:53;100406.88;;;27.12;100.00
5966;BME280;3009;43.224;27.976;2023-07-13T03:53:21;100398.50;;;28.16;100.00
5966;BME280;3009;43.224;27.976;2023-07-13T03:55:51;100394.03;;;28.88;100.00
5966;BME280;3009;43.224;27.976;2023-07-13T03:58:25;100383.81;;;29.01;100.00
5966;BME280;3009;43.224;27.976;2023-07-13T04:00:54;100392.66;;;29.67;100.00
5966;BME280;3009;43.224;27.976;2023-07-13T04:03:23;100387.03;;;29.29;100.00
5966;BME280;3009;43.224;27.976;2023-07-13T04:05:52;100388.91;;;29.61;100.00
5966;BME280;3009;43.224;27.976;2023-07-13T04:08:20;100381.94;;;29.69;100.00
5966;BME280;3009;43.224;27.976;2023-07-13T04:10:50;100390.78;;;28.76;100.00
5966;BME280;3009;43.224;27.976;2023-07-13T04:13:19;100392.34;;;29.65;100.00
5966;BME280;3009;43.224;27.976;2023-07-13T04:15:47;100379.75;;;30.89;99.04
5966;BME280;3009;43.224;27.976;2023-07-13T04:18:16;100389.72;;;31.44;92.04
5966;BME280;3009;43.224;27.976;2023-07-13T04:20:44;100383.69;;;31.99;87.66
5966;BME280;3009;43.224;27.976;2023-07-13T04:23:13;100383.72;;;32.58;81.77
5966;BME280;3009;43.224;27.976;2023-07-13T04:25:43;100385.22;;;32.41;81.38
5966;BME280;3009;43.224;27.976;2023-07-13T04:28:13;100391.13;;;31.71;82.26
5966;BME280;3009;43.224;27.976;2023-07-13T04:30:41;100383.19;;;31.91;84.07
5966;BME280;3009;43.224;27.976;2023-07-13T04:33:10;100388.06;;;33.24;74.44
5966;BME280;3009;43.224;27.976;2023-07-13T04:35:38;100382.84;;;31.80;80.90
5966;BME280;3009;43.224;27.976;2023-07-13T04:38:07;100385.84;;;30.36;94.94
5966;BME280;3009;43.224;27.976;2023-07-13T04:40:38;100390.34;;;30.69;95.84
5966;BME280;3009;43.224;27.976;2023-07-13T04:43:06;100398.28;;;32.90;76.28
5966;BME280;3009;43.224;27.976;2023-07-13T04:45:36;100399.09;;;33.80;69.33
5966;BME280;3009;43.224;27.976;2023-07-13T04:48:05;100395.22;;;34.11;67.08
5966;BME280;3009;43.224;27.976;2023-07-13T04:50:36;100398.19;;;34.89;63.42
5966;BME280;3009;43.224;27.976;2023-07-13T04:53:05;100389.09;;;35.18;61.72
5966;BME280;3009;43.224;27.976;2023-07-13T04:55:34;100393.47;;;33.89;69.19
5966;BME280;3009;43.224;27.976;2023-07-13T04:58:03;100395.13;;;32.60;76.22
5966;BME280;3009;43.224;27.976;2023-07-13T05:00:31;100397.25;;;33.67;71.99
5966;BME280;3009;43.224;27.976;2023-07-13T05:03:03;100390.84;;;34.76;64.23
5966;BME280;3009;43.224;27.976;2023-07-13T05:05:31;100392.69;;;34.79;63.36
5966;BME280;3009;43.224;27.976;2023-07-13T05:08:00;100392.53;;;36.03;57.13
5966;BME280;3009;43.224;27.976;2023-07-13T05:10:29;100397.97;;;35.46;56.88
5966;BME280;3009;43.224;27.976;2023-07-13T05:12:57;100395.88;;;33.63;64.83
5966;BME280;3009;43.224;27.976;2023-07-13T05:15:26;100395.66;;;35.60;57.62
5966;BME280;3009;43.224;27.976;2023-07-13T05:17:54;100400.41;;;35.14;58.57
5966;BME280;3009;43.224;27.976;2023-07-13T05:20:24;100397.88;;;35.56;59.12
5966;BME280;3009;43.224;27.976;2023-07-13T05:22:53;100395.25;;;35.97;55.77
5966;BME280;3009;43.224;27.976;2023-07-13T05:25:21;100399.91;;;34.04;66.54
5966;BME280;3009;43.224;27.976;2023-07-13T05:27:50;100401.00;;;35.19;60.83
5966;BME280;3009;43.224;27.976;2023-07-13T05:30:18;100402.06;;;35.96;57.32
5966;BME280;3009;43.224;27.976;2023-07-13T05:32:47;100401.53;;;35.32;60.27
5966;BME280;3009;43.224;27.976;2023-07-13T05:35:15;100396.50;;;34.09;67.14
5966;BME280;3009;43.224;27.976;2023-07-13T05:37:45;100398.28;;;34.22;66.03
5966;BME280;3009;43.224;27.976;2023-07-13T05:40:13;100400.78;;;34.11;70.03
5966;BME280;3009;43.224;27.976;2023-07-13T05:42:42;100406.16;;;33.19;71.84
5966;BME280;3009;43.224;27.976;2023-07-13T05:45:10;100406.81;;;33.76;70.43
5966;BME280;3009;43.224;27.976;2023-07-13T05:47:38;100402.38;;;34.02;68.70
5966;BME280;3009;43.224;27.976;2023-07-13T05:50:08;100403.41;;;34.48;67.80
5966;BME280;3009;43.224;27.976;2023-07-13T05:52:36;100406.63;;;36.49;56.54
5966;BME280;3009;43.224;27.976;2023-07-13T05:55:06;100400.47;;;37.65;51.15
5966;BME280;3009;43.224;27.976;2023-07-13T05:57:35;100401.94;;;37.60;49.97
5966;BME280;3009;43.224;27.976;2023-07-13T06:00:04;100413.09;;;38.24;47.05
5966;BME280;3009;43.224;27.976;2023-07-13T06:02:33;100407.03;;;38.32;47.23
5966;BME280;3009;43.224;27.976;2023-07-13T06:05:01;100405.38;;;38.62;45.63
5966;BME280;3009;43.224;27.976;2023-07-13T06:07:30;100413.63;;;38.83;44.20
5966;BME280;3009;43.224;27.976;2023-07-13T06:09:58;100400.28;;;37.42;46.74
5966;BME280;3009;43.224;27.976;2023-07-13T06:12:28;100396.47;;;37.72;46.58
5966;BME280;3009;43.224;27.976;2023-07-13T06:14:57;100394.41;;;38.53;44.26
5966;BME280;3009;43.224;27.976;2023-07-13T06:17:25;100404.09;;;38.63;44.71
5966;BME280;3009;43.224;27.976;2023-07-13T06:19:54;100402.88;;;37.78;46.61
5966;BME280;3009;43.224;27.976;2023-07-13T06:22:22;100405.66;;;36.52;52.90
5966;BME280;3009;43.224;27.976;2023-07-13T06:24:51;100412.34;;;36.61;52.92
5966;BME280;3009;43.224;27.976;2023-07-13T06:27:20;100405.97;;;36.75;52.51
5966;BME280;3009;43.224;27.976;2023-07-13T06:29:49;100405.78;;;37.95;48.50
5966;BME280;3009;43.224;27.976;2023-07-13T06:32:18;100413.06;;;37.81;47.89
5966;BME280;3009;43.224;27.976;2023-07-13T06:34:46;100419.19;;;35.89;57.83
5966;BME280;3009;43.224;27.976;2023-07-13T06:37:15;100411.59;;;36.60;54.47
5966;BME280;3009;43.224;27.976;2023-07-13T06:39:43;100409.28;;;36.23;53.76
5966;BME280;3009;43.224;27.976;2023-07-13T06:42:12;100404.53;;;35.28;59.78
5966;BME280;3009;43.224;27.976;2023-07-13T06:44:41;100408.94;;;37.18;50.82
5966;BME280;3009;43.224;27.976;2023-07-13T06:47:10;100405.66;;;37.46;49.86
5966;BME280;3009;43.224;27.976;2023-07-13T06:49:39;100405.88;;;38.55;45.91
5966;BME280;3009;43.224;27.976;2023-07-13T06:52:07;100403.00;;;39.10;44.29
5966;BME280;3009;43.224;27.976;2023-07-13T06:54:36;100397.41;;;39.32;42.70
5966;BME280;3009;43.224;27.976;2023-07-13T06:57:05;100401.41;;;37.56;48.27
5966;BME280;3009;43.224;27.976;2023-07-13T06:59:34;100400.09;;;38.21;46.42
5966;BME280;3009;43.224;27.976;2023-07-13T07:02:02;100398.94;;;38.45;45.54
5966;BME280;3009;43.224;27.976;2023-07-13T07:04:32;100395.34;;;38.39;45.32
5966;BME280;3009;43.224;27.976;2023-07-13T07:07:00;100392.25;;;39.03;43.41
5966;BME280;3009;43.224;27.976;2023-07-13T07:09:29;100396.66;;;39.32;42.84
5966;BME280;3009;43.224;27.976;2023-07-13T07:11:58;100396.13;;;39.16;43.18
5966;BME280;3009;43.224;27.976;2023-07-13T07:14:30;100397.66;;;37.33;49.40
5966;BME280;3009;43.224;27.976;2023-07-13T07:17:01;100398.50;;;38.58;45.17
5966;BME280;3009;43.224;27.976;2023-07-13T07:19:31;100399.84;;;38.79;43.86
5966;BME280;3009;43.224;27.976;2023-07-13T07:22:00;100401.00;;;38.50;44.50
5966;BME280;3009;43.224;27.976;2023-07-13T07:24:28;100391.59;;;38.59;45.20
5966;BME280;3009;43.224;27.976;2023-07-13T07:26:56;100394.03;;;38.94;43.05
5966;BME280;3009;43.224;27.976;2023-07-13T07:29:27;100403.06;;;38.55;44.49
5966;BME280;3009;43.224;27.976;2023-07-13T07:31:59;100385.19;;;38.41;44.61
5966;BME280;3009;43.224;27.976;2023-07-13T07:34:34;100392.13;;;38.08;45.95
5966;BME280;3009;43.224;27.976;2023-07-13T07:37:03;100389.03;;;38.50;44.61
5966;BME280;3009;43.224;27.976;2023-07-13T07:39:34;100395.34;;;37.95;46.25
5966;BME280;3009;43.224;27.976;2023-07-13T07:42:06;100399.94;;;37.99;46.29
5966;BME280;3009;43.224;27.976;2023-07-13T07:44:35;100397.00;;;37.18;49.52
5966;BME280;3009;43.224;27.976;2023-07-13T07:47:04;100395.13;;;37.99;47.12
5966;BME280;3009;43.224;27.976;2023-07-13T07:49:34;100395.88;;;38.43;46.02
5966;BME280;3009;43.224;27.976;2023-07-13T07:52:03;100400.47;;;38.46;45.41
5966;BME280;3009;43.224;27.976;2023-07-13T07:54:32;100400.03;;;37.72;47.44
5966;BME280;3009;43.224;27.976;2023-07-13T07:57:20;100405.13;;;37.42;49.26
5966;BME280;3009;43.224;27.976;2023-07-13T07:59:51;100407.22;;;37.53;48.64
5966;BME280;3009;43.224;27.976;2023-07-13T08:02:23;100404.00;;;37.34;48.16
5966;BME280;3009;43.224;27.976;2023-07-13T08:04:56;100403.31;;;37.39;48.30
5966;BME280;3009;43.224;27.976;2023-07-13T08:07:28;100400.16;;;36.79;50.42
5966;BME280;3009;43.224;27.976;2023-07-13T08:09:58;100404.00;;;36.81;50.46
5966;BME280;3009;43.224;27.976;2023-07-13T08:12:27;100411.56;;;36.40;51.84
5966;BME280;3009;43.224;27.976;2023-07-13T08:14:58;100410.75;;;35.83;53.31
5966;BME280;3009;43.224;27.976;2023-07-13T08:17:27;100405.19;;;34.36;60.48
5966;BME280;3009;43.224;27.976;2023-07-13T08:19:57;100394.09;;;33.32;70.63
5966;BME280;3009;43.224;27.976;2023-07-13T08:22:26;100406.69;;;32.09;76.98
5966;BME280;3009;43.224;27.976;2023-07-13T08:24:55;100411.06;;;32.19;79.35
5966;BME280;3009;43.224;27.976;2023-07-13T08:27:25;100404.13;;;31.83;81.88
5966;BME280;3009;43.224;27.976;2023-07-13T08:29:54;100411.22;;;31.40;86.44
5966;BME280;3009;43.224;27.976;2023-07-13T08:32:23;100397.81;;;31.38;86.44
5966;BME280;3009;43.224;27.976;2023-07-13T08:34:52;100403.56;;;31.44;86.85
5966;BME280;3009;43.224;27.976;2023-07-13T08:37:22;100404.31;;;31.57;86.53
5966;BME280;3009;43.224;27.976;2023-07-13T08:39:51;100404.72;;;31.12;88.03
5966;BME280;3009;43.224;27.976;2023-07-13T08:42:31;100403.09;;;31.23;83.93
5966;BME280;3009;43.224;27.976;2023-07-13T08:45:07;100395.25;;;31.44;83.21
5966;BME280;3009;43.224;27.976;2023-07-13T08:47:44;100404.41;;;31.32;85.54
5966;BME280;3009;43.224;27.976;2023-07-13T08:50:16;100403.50;;;31.13;79.93
5966;BME280;3009;43.224;27.976;2023-07-13T08:52:47;100406.53;;;31.27;79.09
5966;BME280;3009;43.224;27.976;2023-07-13T08:55:18;100407.69;;;31.39;75.30
5966;BME280;3009;43.224;27.976;2023-07-13T08:57:52;100408.09;;;31.28;72.54
5966;BME280;3009;43.224;27.976;2023-07-13T09:00:25;100406.03;;;31.42;73.99
5966;BME280;3009;43.224;27.976;2023-07-13T09:03:00;100400.53;;;31.29;75.76
5966;BME280;3009;43.224;27.976;2023-07-13T09:05:33;100406.59;;;31.37;73.62
5966;BME280;3009;43.224;27.976;2023-07-13T09:08:16;100402.84;;;31.31;71.96
5966;BME280;3009;43.224;27.976;2023-07-13T09:10:51;100399.63;;;30.75;76.50
5966;BME280;3009;43.224;27.976;2023-07-13T09:13:27;100401.75;;;30.71;78.81
5966;BME280;3009;43.224;27.976;2023-07-13T09:16:00;100405.75;;;31.05;73.57
5966;BME280;3009;43.224;27.976;2023-07-13T09:18:35;100402.16;;;30.82;72.25
5966;BME280;3009;43.224;27.976;2023-07-13T09:21:09;100394.97;;;30.72;75.68
5966;BME280;3009;43.224;27.976;2023-07-13T09:23:41;100390.38;;;30.91;73.72
5966;BME280;3009;43.224;27.976;2023-07-13T09:26:18;100404.00;;;31.20;75.12
5966;BME280;3009;43.224;27.976;2023-07-13T09:28:49;100402.59;;;31.38;68.25
5966;BME280;3009;43.224;27.976;2023-07-13T09:31:24;100412.03;;;31.40;65.59
5966;BME280;3009;43.224;27.976;2023-07-13T09:33:54;100403.69;;;31.62;67.91
5966;BME280;3009;43.224;27.976;2023-07-13T09:36:25;100405.91;;;31.68;68.66
5966;BME280;3009;43.224;27.976;2023-07-13T09:38:59;100392.44;;;31.35;64.43
5966;BME280;3009;43.224;27.976;2023-07-13T09:41:39;100394.22;;;31.51;64.90
5966;BME280;3009;43.224;27.976;2023-07-13T09:44:10;100405.44;;;31.47;69.41
5966;BME280;3009;43.224;27.976;2023-07-13T09:46:44;100400.09;;;30.96;71.10
5966;BME280;3009;43.224;27.976;2023-07-13T09:49:14;100385.09;;;31.41;72.66
5966;BME280;3009;43.224;27.976;2023-07-13T09:51:42;100399.81;;;31.60;71.63
5966;BME280;3009;43.224;27.976;2023-07-13T09:54:24;100389.16;;;31.80;71.76
5966;BME280;3009;43.224;27.976;2023-07-13T09:56:56;100391.41;;;31.95;71.75
5966;BME280;3009;43.224;27.976;2023-07-13T09:59:29;100390.25;;;31.83;72.14
5966;BME280;3009;43.224;27.976;2023-07-13T10:01:58;100386.03;;;31.69;70.46
5966;BME280;3009;43.224;27.976;2023-07-13T10:04:29;100387.25;;;31.46;70.92
5966;BME280;3009;43.224;27.976;2023-07-13T10:07:05;100386.50;;;31.68;75.45
5966;BME280;3009;43.224;27.976;2023-07-13T10:09:57;100387.44;;;31.74;76.59
5966;BME280;3009;43.224;27.976;2023-07-13T10:12:29;100380.97;;;31.68;73.96
5966;BME280;3009;43.224;27.976;2023-07-13T10:15:00;100381.09;;;31.42;66.26
5966;BME280;3009;43.224;27.976;2023-07-13T10:17:51;100372.78;;;31.42;68.90
5966;BME280;3009;43.224;27.976;2023-07-13T10:20:20;100368.00;;;31.65;64.45
5966;BME280;3009;43.224;27.976;2023-07-13T10:22:52;100360.72;;;31.89;64.41
5966;BME280;3009;43.224;27.976;2023-07-13T10:25:25;100353.94;;;31.90;69.67
5966;BME280;3009;43.224;27.976;2023-07-13T10:27:58;100362.63;;;31.70;71.10
5966;BME280;3009;43.224;27.976;2023-07-13T10:30:31;100356.84;;;31.55;72.23
5966;BME280;3009;43.224;27.976;2023-07-13T10:33:02;100351.44;;;31.52;71.80
5966;BME280;3009;43.224;27.976;2023-07-13T10:35:33;100350.72;;;31.60;72.10
5966;BME280;3009;43.224;27.976;2023-07-13T10:38:04;100346.34;;;31.50;72.50
5966;BME280;3009;43.224;27.976;2023-07-13T10:40:37;100348.53;;;31.55;71.54
5966;BME280;3009;43.224;27.976;2023-07-13T10:43:12;100355.06;;;31.61;71.53
5966;BME280;3009;43.224;27.976;2023-07-13T10:45:46;100346.09;;;31.57;70.36
5966;BME280;3009;43.224;27.976;2023-07-13T10:48:17;100343.41;;;31.76;68.87
5966;BME280;3009;43.224;27.976;2023-07-13T10:50:48;100339.16;;;31.93;68.41
5966;BME280;3009;43.224;27.976;2023-07-13T10:53:21;100344.38;;;31.91;69.22
5966;BME280;3009;43.224;27.976;2023-07-13T10:56:02;100350.50;;;31.77;70.91
5966;BME280;3009;43.224;27.976;2023-07-13T10:58:34;100348.94;;;31.76;71.66
5966;BME280;3009;43.224;27.976;2023-07-13T11:01:08;100344.13;;;31.67;73.89
5966;BME280;3009;43.224;27.976;2023-07-13T11:03:48;100345.50;;;31.62;73.82
5966;BME280;3009;43.224;27.976;2023-07-13T11:06:37;100351.31;;;31.55;76.70
5966;BME280;3009;43.224;27.976;2023-07-13T11:09:20;100354.91;;;31.65;76.62
5966;BME280;3009;43.224;27.976;2023-07-13T11:12:00;100347.06;;;31.63;75.16
5966;BME280;3009;43.224;27.976;2023-07-13T11:14:35;100345.44;;;31.31;79.58
5966;BME280;3009;43.224;27.976;2023-07-13T11:17:36;100351.66;;;31.57;77.63
5966;BME280;3009;43.224;27.976;2023-07-13T11:20:35;100350.16;;;31.75;76.27
5966;BME280;3009;43.224;27.976;2023-07-13T11:23:20;100349.09;;;31.72;75.92
5966;BME280;3009;43.224;27.976;2023-07-13T11:25:54;100360.84;;;31.54;78.89
5966;BME280;3009;43.224;27.976;2023-07-13T11:28:25;100352.09;;;31.56;78.56
5966;BME280;3009;43.224;27.976;2023-07-13T11:31:19;100348.00;;;30.81;78.87
5966;BME280;3009;43.224;27.976;2023-07-13T11:33:56;100350.72;;;30.94;81.83
5966;BME280;3009;43.224;27.976;2023-07-13T11:36:31;100354.19;;;30.98;77.91
5966;BME280;3009;43.224;27.976;2023-07-13T11:39:10;100341.28;;;31.26;76.97
5966;BME280;3009;43.224;27.976;2023-07-13T11:41:44;100348.88;;;31.57;74.59
5966;BME280;3009;43.224;27.976;2023-07-13T11:44:18;100349.81;;;31.63;75.33
5966;BME280;3009;43.224;27.976;2023-07-13T11:46:48;100345.41;;;31.75;76.04
5966;BME280;3009;43.224;27.976;2023-07-13T11:49:24;100351.66;;;31.35;79.59
5966;BME280;3009;43.224;27.976;2023-07-13T11:51:54;100345.16;;;31.29;80.71
5966;BME280;3009;43.224;27.976;2023-07-13T11:54:25;100343.31;;;30.91;83.99
5966;BME280;3009;43.224;27.976;2023-07-13T11:56:55;100333.97;;;30.40;86.61
5966;BME280;3009;43.224;27.976;2023-07-13T11:59:29;100336.91;;;30.59;87.74
5966;BME280;3009;43.224;27.976;2023-07-13T12:02:00;100339.03;;;30.55;87.24
5966;BME280;3009;43.224;27.976;2023-07-13T12:04:31;100339.75;;;29.95;92.46
5966;BME280;3009;43.224;27.976;2023-07-13T12:07:05;100332.44;;;30.01;92.87
5966;BME280;3009;43.224;27.976;2023-07-13T12:09:35;100336.47;;;30.61;86.92
5966;BME280;3009;43.224;27.976;2023-07-13T12:12:10;100335.84;;;30.31;89.80
5966;BME280;3009;43.224;27.976;2023-07-13T12:14:41;100331.31;;;30.50;88.09
5966;BME280;3009;43.224;27.976;2023-07-13T12:17:15;100332.81;;;30.64;88.18
5966;BME280;3009;43.224;27.976;2023-07-13T12:19:44;100336.03;;;30.49;90.43
5966;BME280;3009;43.224;27.976;2023-07-13T12:22:14;100332.81;;;30.64;87.67
5966;BME280;3009;43.224;27.976;2023-07-13T12:24:45;100334.09;;;30.72;88.25
5966;BME280;3009;43.224;27.976;2023-07-13T12:27:19;100329.53;;;30.78;87.12
5966;BME280;3009;43.224;27.976;2023-07-13T12:29:52;100326.03;;;30.65;91.52
5966;BME280;3009;43.224;27.976;2023-07-13T12:32:26;100318.31;;;30.60;91.31
5966;BME280;3009;43.224;27.976;2023-07-13T12:35:13;100321.63;;;30.07;96.76
5966;BME280;3009;43.224;27.976;2023-07-13T12:37:42;100314.97;;;30.17;94.82
5966;BME280;3009;43.224;27.976;2023-07-13T12:40:15;100315.88;;;30.14;96.26
5966;BME280;3009;43.224;27.976;2023-07-13T12:42:47;100308.44;;;30.23;95.83
5966;BME280;3009;43.224;27.976;2023-07-13T12:45:21;100300.03;;;30.14;97.30
5966;BME280;3009;43.224;27.976;2023-07-13T12:47:53;100296.47;;;30.27;95.66
5966;BME280;3009;43.224;27.976;2023-07-13T12:50:33;100299.81;;;30.21;97.16
5966;BME280;3009;43.224;27.976;2023-07-13T12:53:03;100292.84;;;30.17;96.50
5966;BME280;3009;43.224;27.976;2023-07-13T12:55:41;100296.66;;;29.84;100.00
5966;BME280;3009;43.224;27.976;2023-07-13T12:58:17;100290.22;;;29.87;100.00
5966;BME280;3009;43.224;27.976;2023-07-13T13:00:54;100290.44;;;29.93;100.00
5966;BME280;3009;43.224;27.976;2023-07-13T13:03:30;100283.16;;;29.99;100.00
5966;BME280;3009;43.224;27.976;2023-07-13T13:06:01;100279.03;;;30.04;100.00
5966;BME280;3009;43.224;27.976;2023-07-13T13:08:35;100275.63;;;30.00;100.00
5966;BME280;3009;43.224;27.976;2023-07-13T13:11:04;100271.00;;;29.84;99.92
5966;BME280;3009;43.224;27.976;2023-07-13T13:13:34;100271.75;;;29.59;100.00
5966;BME280;3009;43.224;27.976;2023-07-13T13:16:09;100263.94;;;29.83;98.24
5966;BME280;3009;43.224;27.976;2023-07-13T13:18:38;100266.09;;;30.01;95.97